Time;durP1;ratioP1;P1;durP2;ratioP2;P2;SDS_P1;SDS_P2;PMS_P1;PMS_P2;Temp;Humidity;BMP_temperature;BMP_pressure;BME280_temperature;BME280_humidity;BME280_pressure;Samples;Min_cycle;Max_cycle;Signal;HPM_P1;HPM_P2
2023/07/03 00:02:00;;;;;;;;;;;24.60;51.00;;;;;;4898684;29;20031;-90
2023/07/03 00:04:27;;;;;;;;;;;24.60;51.10;;;;;;4900985;29;19912;-89
2023/07/03 00:06:52;;;;;;;;;;;24.60;51.00;;;;;;4899527;29;19917;-89
2023/07/03 00:09:18;;;;;;;;;;;24.50;51.00;;;;;;4907435;29;19912;-90
2023/07/03 00:11:43;;;;;;;;;;;24.60;51.00;;;;;;4898944;29;19912;-90
2023/07/03 00:14:09;;;;;;;;;;;24.60;51.00;;;;;;4900190;29;20022;-90
2023/07/03 00:16:35;;;;;;;;;;;24.50;51.00;;;;;;4901155;29;19998;-89
2023/07/03 00:19:00;;;;;;;;;;;24.50;51.00;;;;;;4906892;29;20196;-90
2023/07/03 00:21:26;;;;;;;;;;;24.50;51.00;;;;;;4900099;29;19911;-89
2023/07/03 00:23:52;;;;;;;;;;;24.50;51.00;;;;;;4900035;29;20161;-90
2023/07/03 00:26:17;;;;;;;;;;;24.50;51.00;;;;;;4899638;29;19958;-90
2023/07/03 00:28:43;;;;;;;;;;;24.50;51.00;;;;;;4904938;29;20101;-90
2023/07/03 00:31:08;;;;;;;;;;;24.50;51.00;;;;;;4896544;29;19952;-89
2023/07/03 00:33:34;;;;;;;;;;;24.50;51.00;;;;;;4898822;29;19911;-89
2023/07/03 00:36:00;;;;;;;;;;;24.40;51.00;;;;;;4899217;29;19918;-91
2023/07/03 00:38:25;;;;;;;;;;;24.40;51.00;;;;;;4896562;29;19915;-90
2023/07/03 00:40:51;;;;;;;;;;;24.40;51.00;;;;;;4906824;29;19918;-90
2023/07/03 00:43:17;;;;;;;;;;;24.40;51.00;;;;;;4897809;29;19970;-90
2023/07/03 00:45:43;;;;;;;;;;;24.40;51.00;;;;;;4900348;29;19922;-91
2023/07/03 00:48:09;;;;;;;;;;;24.40;51.00;;;;;;4906060;29;20017;-91
2023/07/03 00:50:34;;;;;;;;;;;24.40;51.00;;;;;;4897232;29;20177;-90
2023/07/03 00:53:01;;;;;;;;;;;24.40;51.00;;;;;;4907559;29;19920;-90
2023/07/03 00:55:27;;;;;;;;;;;24.40;51.00;;;;;;4898315;29;19924;-89
2023/07/03 00:57:52;;;;;;;;;;;24.40;51.00;;;;;;4900026;29;19915;-90
2023/07/03 01:00:18;;;;;;;;;;;24.30;51.00;;;;;;4908055;29;19998;-90
2023/07/03 01:02:50;;;;;;;;;;;24.30;51.00;;;;;;4901037;29;19926;-89
2023/07/03 01:05:24;;;;;;;;;;;24.30;51.00;;;;;;4899584;29;20002;-90
2023/07/03 01:07:51;;;;;;;;;;;24.30;51.00;;;;;;4899482;29;19982;-89
2023/07/03 01:10:19;;;;;;;;;;;24.30;51.00;;;;;;4907206;29;19919;-89
2023/07/03 01:12:47;;;;;;;;;;;24.30;51.00;;;;;;4901145;29;20229;-89
2023/07/03 01:15:17;;;;;;;;;;;24.30;51.00;;;;;;4906224;29;19963;-90
2023/07/03 01:17:44;;;;;;;;;;;24.30;51.00;;;;;;4907742;29;19934;-89
2023/07/03 01:20:13;;;;;;;;;;;24.30;51.00;;;;;;4900775;29;19919;-90
2023/07/03 01:23:05;;;;;;;;;;;24.30;51.00;;;;;;4897676;29;20224;-90
2023/07/03 01:25:32;;;;;;;;;;;24.20;50.90;;;;;;4882300;29;19911;-90
2023/07/03 01:27:59;;;;;;;;;;;24.20;51.00;;;;;;4890029;29;20208;-90
2023/07/03 01:30:25;;;;;;;;;;;24.20;50.90;;;;;;4900901;29;19922;-90
2023/07/03 01:32:52;;;;;;;;;;;24.20;51.00;;;;;;4897603;29;19919;-90
2023/07/03 01:35:19;;;;;;;;;;;24.20;51.00;;;;;;4908871;29;19974;-90
2023/07/03 01:37:47;;;;;;;;;;;24.10;50.90;;;;;;4900828;29;19915;-89
2023/07/03 01:40:14;;;;;;;;;;;24.10;50.90;;;;;;4898830;29;20260;-89
2023/07/03 01:42:41;;;;;;;;;;;24.10;50.90;;;;;;4899268;29;20013;-91
2023/07/03 01:45:07;;;;;;;;;;;24.10;51.00;;;;;;4900792;29;19912;-89
2023/07/03 01:47:32;;;;;;;;;;;24.10;51.00;;;;;;4899272;29;20113;-89
2023/07/03 01:49:58;;;;;;;;;;;24.10;50.90;;;;;;4898993;29;20406;-89
2023/07/03 01:52:28;;;;;;;;;;;24.10;50.90;;;;;;4901659;29;19915;-90
2023/07/03 01:55:05;;;;;;;;;;;24.10;50.90;;;;;;4903468;29;19924;-90
2023/07/03 01:57:40;;;;;;;;;;;24.10;50.90;;;;;;4892946;29;19911;-90
2023/07/03 02:00:08;;;;;;;;;;;24.10;50.90;;;;;;4892149;29;19911;-89
2023/07/03 02:02:34;;;;;;;;;;;24.00;50.90;;;;;;4898304;29;19983;-91
2023/07/03 02:05:06;;;;;;;;;;;24.00;50.90;;;;;;4898901;29;19912;-90
2023/07/03 02:07:32;;;;;;;;;;;24.00;50.90;;;;;;4900724;29;19919;-90
2023/07/03 02:09:59;;;;;;;;;;;24.00;50.90;;;;;;4899192;29;19915;-89
2023/07/03 02:12:24;;;;;;;;;;;24.00;50.90;;;;;;4904068;29;20014;-90
2023/07/03 02:14:50;;;;;;;;;;;24.00;50.90;;;;;;4902084;29;20018;-90
2023/07/03 02:17:15;;;;;;;;;;;24.00;50.90;;;;;;4903092;29;19919;-89
2023/07/03 02:19:41;;;;;;;;;;;24.00;50.90;;;;;;4908412;29;19922;-90
2023/07/03 02:22:07;;;;;;;;;;;24.00;50.90;;;;;;4912620;29;19915;-89
2023/07/03 02:24:33;;;;;;;;;;;23.90;50.80;;;;;;4910619;29;20070;-90
2023/07/03 02:26:59;;;;;;;;;;;23.90;50.90;;;;;;4902292;29;19935;-89
2023/07/03 02:29:25;;;;;;;;;;;23.90;50.90;;;;;;4904040;29;19919;-89
2023/07/03 02:31:50;;;;;;;;;;;23.90;50.90;;;;;;4909561;29;19916;-90
2023/07/03 02:34:16;;;;;;;;;;;23.90;50.90;;;;;;4902292;29;19998;-90
2023/07/03 02:36:41;;;;;;;;;;;23.90;50.90;;;;;;4905305;29;19911;-90
2023/07/03 02:39:09;;;;;;;;;;;23.90;50.90;;;;;;4902456;29;19911;-89
2023/07/03 02:41:34;;;;;;;;;;;23.90;50.90;;;;;;4902848;29;19911;-90
2023/07/03 02:44:00;;;;;;;;;;;23.90;50.90;;;;;;4901589;29;19926;-89
2023/07/03 02:46:26;;;;;;;;;;;23.80;50.80;;;;;;4902894;29;19942;-90
2023/07/03 02:48:51;;;;;;;;;;;23.90;50.90;;;;;;4907743;29;19911;-89
2023/07/03 02:51:17;;;;;;;;;;;23.80;50.80;;;;;;4911743;29;19951;-89
2023/07/03 02:53:43;;;;;;;;;;;23.80;50.90;;;;;;4901792;29;20225;-90
2023/07/03 02:56:09;;;;;;;;;;;23.80;50.90;;;;;;4902242;29;19912;-89
2023/07/03 02:58:34;;;;;;;;;;;23.80;50.80;;;;;;4902509;29;20272;-89
2023/07/03 03:01:01;;;;;;;;;;;23.80;50.80;;;;;;4908333;29;19926;-89
2023/07/03 03:03:30;;;;;;;;;;;23.80;50.90;;;;;;4901322;29;19927;-89
2023/07/03 03:05:55;;;;;;;;;;;23.80;50.90;;;;;;4902742;29;19950;-89
2023/07/03 03:08:22;;;;;;;;;;;23.80;50.90;;;;;;4901732;29;19973;-90
2023/07/03 03:10:47;;;;;;;;;;;23.70;50.80;;;;;;4899867;29;20288;-90
2023/07/03 03:13:13;;;;;;;;;;;23.70;50.80;;;;;;4902487;29;20140;-90
2023/07/03 03:15:39;;;;;;;;;;;23.70;50.80;;;;;;4900721;29;19912;-90
2023/07/03 03:18:04;;;;;;;;;;;23.70;50.80;;;;;;4910399;29;19930;-90
2023/07/03 03:20:30;;;;;;;;;;;23.70;50.80;;;;;;4897954;29;20069;-90
2023/07/03 03:22:56;;;;;;;;;;;23.70;50.80;;;;;;4898616;29;19915;-89
2023/07/03 03:25:22;;;;;;;;;;;23.70;50.80;;;;;;4900835;29;19911;-89
2023/07/03 03:27:47;;;;;;;;;;;23.70;50.80;;;;;;4897634;29;20130;-90
2023/07/03 03:30:13;;;;;;;;;;;23.70;50.80;;;;;;4900093;29;19911;-90
2023/07/03 03:32:38;;;;;;;;;;;23.70;50.80;;;;;;4908698;29;19979;-89
2023/07/03 03:35:05;;;;;;;;;;;23.70;50.80;;;;;;4898552;29;19947;-90
2023/07/03 03:37:31;;;;;;;;;;;23.60;50.70;;;;;;4901948;29;19912;-89
2023/07/03 03:39:56;;;;;;;;;;;23.60;50.70;;;;;;4897756;29;20129;-90
2023/07/03 03:42:22;;;;;;;;;;;23.70;50.80;;;;;;4897620;29;19963;-90
2023/07/03 03:44:48;;;;;;;;;;;23.60;50.70;;;;;;4900257;29;19911;-90
2023/07/03 03:47:13;;;;;;;;;;;23.60;50.70;;;;;;4898552;29;19915;-90
2023/07/03 03:49:39;;;;;;;;;;;23.60;50.70;;;;;;4895643;29;19911;-90
2023/07/03 03:52:05;;;;;;;;;;;23.60;50.70;;;;;;4885908;29;19948;-90
2023/07/03 03:54:30;;;;;;;;;;;23.60;50.70;;;;;;4892674;29;20165;-90
2023/07/03 03:56:56;;;;;;;;;;;23.60;50.70;;;;;;4904777;29;19919;-89
2023/07/03 03:59:21;;;;;;;;;;;23.60;50.70;;;;;;4900863;29;20002;-90
2023/07/03 04:01:48;;;;;;;;;;;23.60;50.70;;;;;;4897892;29;19977;-90
2023/07/03 04:04:14;;;;;;;;;;;23.60;50.70;;;;;;4895659;29;20142;-90
2023/07/03 04:06:39;;;;;;;;;;;23.60;50.70;;;;;;4907638;29;19922;-90
2023/07/03 04:09:05;;;;;;;;;;;23.60;50.70;;;;;;4899429;29;20006;-90
2023/07/03 04:11:31;;;;;;;;;;;23.60;50.70;;;;;;4896417;29;19919;-90
2023/07/03 04:13:56;;;;;;;;;;;23.60;50.70;;;;;;4889799;29;19912;-89
2023/07/03 04:16:23;;;;;;;;;;;23.60;50.70;;;;;;4900025;29;20279;-90
2023/07/03 04:18:48;;;;;;;;;;;23.60;50.70;;;;;;4897763;29;19961;-91
2023/07/03 04:21:14;;;;;;;;;;;23.60;50.70;;;;;;4891847;29;19955;-90
2023/07/03 04:23:40;;;;;;;;;;;23.60;50.70;;;;;;4906165;29;20296;-90
2023/07/03 04:26:05;;;;;;;;;;;23.60;50.60;;;;;;4900024;29;19911;-89
2023/07/03 04:28:31;;;;;;;;;;;23.60;50.70;;;;;;4898194;29;20006;-89
2023/07/03 04:30:57;;;;;;;;;;;23.60;50.60;;;;;;4908889;29;19915;-90
2023/07/03 04:33:22;;;;;;;;;;;23.60;50.60;;;;;;4895985;29;20335;-90
2023/07/03 04:35:48;;;;;;;;;;;23.60;50.60;;;;;;4895643;29;19911;-90
2023/07/03 04:38:17;;;;;;;;;;;23.60;50.60;;;;;;4896519;29;19913;-90
2023/07/03 04:40:43;;;;;;;;;;;23.60;50.60;;;;;;4897794;29;20340;-89
2023/07/03 04:43:09;;;;;;;;;;;23.60;50.60;;;;;;4896547;29;19916;-89
2023/07/03 04:45:45;;;;;;;;;;;23.60;50.60;;;;;;4905282;29;19911;-89
2023/07/03 04:48:10;;;;;;;;;;;23.60;50.50;;;;;;4897299;29;19919;-90
2023/07/03 04:50:36;;;;;;;;;;;23.60;50.50;;;;;;4897522;29;20300;-90
2023/07/03 04:53:03;;;;;;;;;;;23.70;50.50;;;;;;4896139;29;19960;-90
2023/07/03 04:55:30;;;;;;;;;;;23.70;50.50;;;;;;4884082;29;19934;-89
2023/07/03 04:57:57;;;;;;;;;;;23.70;50.40;;;;;;4896574;29;20092;-90
2023/07/03 05:00:23;;;;;;;;;;;23.70;50.40;;;;;;4898506;29;19918;-90
2023/07/03 05:02:51;;;;;;;;;;;23.70;50.40;;;;;;4894771;29;19915;-90
2023/07/03 05:05:18;;;;;;;;;;;23.70;50.30;;;;;;4894047;29;20394;-89
2023/07/03 05:07:44;;;;;;;;;;;23.70;50.30;;;;;;4896481;29;19922;-90
2023/07/03 05:10:10;;;;;;;;;;;23.70;50.70;;;;;;4896223;29;19911;-90
2023/07/03 05:12:36;;;;;;;;;;;23.70;50.30;;;;;;4896815;29;20173;-90
2023/07/03 05:15:03;;;;;;;;;;;23.70;50.30;;;;;;4902978;29;19914;-89
2023/07/03 05:17:29;;;;;;;;;;;23.70;50.30;;;;;;4893242;29;19919;-90
2023/07/03 05:19:55;;;;;;;;;;;23.70;50.20;;;;;;4892426;29;19911;-92
2023/07/03 05:22:21;;;;;;;;;;;23.80;50.20;;;;;;4894953;29;19926;-89
2023/07/03 05:24:47;;;;;;;;;;;23.70;50.20;;;;;;4903086;29;19923;-89
2023/07/03 05:27:13;;;;;;;;;;;23.80;50.20;;;;;;4903487;29;19921;-90
2023/07/03 05:29:38;;;;;;;;;;;23.80;50.20;;;;;;4894991;29;19915;-90
2023/07/03 05:32:05;;;;;;;;;;;23.80;50.20;;;;;;4896625;29;20058;-90
2023/07/03 05:34:32;;;;;;;;;;;23.80;50.20;;;;;;4894774;29;20030;-90
2023/07/03 05:36:58;;;;;;;;;;;23.80;50.20;;;;;;4904308;29;19971;-90
2023/07/03 05:39:24;;;;;;;;;;;23.80;50.20;;;;;;4894881;29;19911;-91
2023/07/03 05:41:50;;;;;;;;;;;23.80;50.10;;;;;;4893839;29;20002;-91
2023/07/03 05:44:15;;;;;;;;;;;23.80;50.10;;;;;;4894349;29;20114;-90
2023/07/03 05:46:41;;;;;;;;;;;23.80;50.10;;;;;;4896997;29;20161;-89
2023/07/03 05:49:06;;;;;;;;;;;23.90;50.10;;;;;;4895401;29;20002;-91
2023/07/03 05:51:32;;;;;;;;;;;23.90;50.10;;;;;;4904951;29;19911;-90
2023/07/03 05:53:58;;;;;;;;;;;23.80;50.00;;;;;;4894155;29;19912;-90
2023/07/03 05:56:25;;;;;;;;;;;23.80;50.00;;;;;;4897160;29;20202;-89
2023/07/03 05:58:51;;;;;;;;;;;23.90;50.10;;;;;;4895399;29;20003;-89
2023/07/03 06:01:17;;;;;;;;;;;23.90;50.00;;;;;;4895675;29;19911;-89
2023/07/03 06:03:44;;;;;;;;;;;23.90;50.00;;;;;;4892852;29;20057;-89
2023/07/03 06:06:09;;;;;;;;;;;23.90;50.00;;;;;;4894879;29;19919;-89
2023/07/03 06:08:35;;;;;;;;;;;23.90;50.00;;;;;;4893598;29;19911;-90
2023/07/03 06:11:01;;;;;;;;;;;23.90;50.00;;;;;;4893901;29;19979;-89
2023/07/03 06:13:26;;;;;;;;;;;23.90;50.00;;;;;;4889087;29;19919;-90
2023/07/03 06:15:52;;;;;;;;;;;23.90;50.00;;;;;;4897791;29;20157;-88
2023/07/03 06:18:18;;;;;;;;;;;23.90;50.00;;;;;;4893905;29;20262;-90
2023/07/03 06:20:44;;;;;;;;;;;23.90;50.00;;;;;;4890261;29;20161;-89
2023/07/03 06:23:09;;;;;;;;;;;23.90;50.00;;;;;;4897031;29;19958;-89
2023/07/03 06:25:35;;;;;;;;;;;23.90;50.00;;;;;;4903567;29;19912;-88
2023/07/03 06:28:00;;;;;;;;;;;23.90;50.00;;;;;;4904820;29;19922;-90
2023/07/03 06:30:26;;;;;;;;;;;23.90;50.00;;;;;;4895320;29;19971;-89
2023/07/03 06:32:51;;;;;;;;;;;23.90;50.00;;;;;;4894045;29;19911;-89
2023/07/03 06:35:17;;;;;;;;;;;23.90;50.00;;;;;;4895878;29;20015;-89
2023/07/03 06:37:43;;;;;;;;;;;23.90;50.00;;;;;;4895945;29;19923;-90
2023/07/03 06:40:11;;;;;;;;;;;23.90;50.00;;;;;;4905216;29;19965;-89
2023/07/03 06:42:37;;;;;;;;;;;23.90;50.00;;;;;;4892089;29;20173;-89
2023/07/03 06:45:03;;;;;;;;;;;23.90;49.90;;;;;;4893653;29;20022;-90
2023/07/03 06:47:29;;;;;;;;;;;24.00;49.80;;;;;;4895288;29;19965;-91
2023/07/03 06:49:54;;;;;;;;;;;24.10;49.80;;;;;;4892750;29;20260;-88
2023/07/03 06:52:20;;;;;;;;;;;24.10;49.60;;;;;;4886893;29;19923;-90
2023/07/03 06:54:46;;;;;;;;;;;24.10;49.60;;;;;;4894785;29;19911;-90
2023/07/03 06:57:12;;;;;;;;;;;24.20;49.60;;;;;;4893494;29;19919;-89
2023/07/03 06:59:37;;;;;;;;;;;24.30;49.60;;;;;;4902913;29;20284;-88
2023/07/03 07:02:04;;;;;;;;;;;24.40;49.50;;;;;;4903251;29;19919;-89
2023/07/03 07:04:29;;;;;;;;;;;24.40;49.40;;;;;;4892385;29;20291;-90
2023/07/03 07:06:55;;;;;;;;;;;24.50;49.30;;;;;;4892008;29;19917;-90
2023/07/03 07:09:21;;;;;;;;;;;24.50;49.20;;;;;;4894334;29;19922;-90
2023/07/03 07:11:47;;;;;;;;;;;24.50;49.30;;;;;;4889907;29;19921;-89
2023/07/03 07:14:12;;;;;;;;;;;24.50;49.30;;;;;;4883624;29;20256;-91
2023/07/03 07:16:39;;;;;;;;;;;24.50;49.30;;;;;;4897561;29;20225;-89
2023/07/03 07:19:06;;;;;;;;;;;24.50;49.20;;;;;;4892268;29;19912;-89
2023/07/03 07:21:33;;;;;;;;;;;24.60;49.30;;;;;;4898115;29;19918;-90
2023/07/03 07:24:00;;;;;;;;;;;24.70;49.30;;;;;;4888808;29;20018;-89
2023/07/03 07:26:32;;;;;;;;;;;24.70;49.20;;;;;;4899250;29;19911;-88
2023/07/03 07:28:58;;;;;;;;;;;24.70;49.20;;;;;;4890105;29;20299;-89
2023/07/03 07:31:25;;;;;;;;;;;24.70;49.20;;;;;;4890701;29;20106;-90
2023/07/03 07:33:51;;;;;;;;;;;24.70;49.20;;;;;;4889799;29;20096;-91
2023/07/03 07:36:18;;;;;;;;;;;24.70;49.20;;;;;;4887167;29;19916;-89
2023/07/03 07:38:43;;;;;;;;;;;24.70;49.20;;;;;;4890700;29;19911;-90
2023/07/03 07:41:10;;;;;;;;;;;24.80;49.20;;;;;;4898692;29;19938;-88
2023/07/03 07:43:35;;;;;;;;;;;24.80;49.20;;;;;;4894469;29;20161;-88
2023/07/03 07:46:01;;;;;;;;;;;24.90;49.20;;;;;;4898527;29;19918;-88
2023/07/03 07:48:26;;;;;;;;;;;24.90;49.10;;;;;;4902803;29;20002;-88
2023/07/03 07:50:52;;;;;;;;;;;24.90;49.10;;;;;;4894052;29;20212;-88
2023/07/03 07:53:18;;;;;;;;;;;24.90;49.10;;;;;;4893828;29;19911;-88
2023/07/03 07:55:43;;;;;;;;;;;24.90;49.10;;;;;;4893961;29;19911;-89
2023/07/03 07:58:09;;;;;;;;;;;24.90;49.10;;;;;;4888036;29;20405;-88
2023/07/03 08:00:34;;;;;;;;;;;25.00;49.00;;;;;;4891654;29;19911;-89
2023/07/03 08:03:00;;;;;;;;;;;25.00;49.00;;;;;;4890093;29;20259;-89
2023/07/03 08:05:25;;;;;;;;;;;25.10;49.00;;;;;;4886122;29;19991;-89
2023/07/03 08:07:52;;;;;;;;;;;25.00;48.90;;;;;;4887380;29;19911;-89
2023/07/03 08:10:19;;;;;;;;;;;25.10;48.90;;;;;;4886849;29;19933;-89
2023/07/03 08:12:44;;;;;;;;;;;25.10;48.90;;;;;;4898266;29;20493;-89
2023/07/03 08:15:10;;;;;;;;;;;25.10;49.00;;;;;;4899271;29;20280;-89
2023/07/03 08:17:36;;;;;;;;;;;25.10;48.90;;;;;;4886871;29;19919;-88
2023/07/03 08:20:02;;;;;;;;;;;25.20;48.90;;;;;;4900244;29;20472;-89
2023/07/03 08:22:28;;;;;;;;;;;25.20;48.80;;;;;;4894010;29;20022;-89
2023/07/03 08:24:54;;;;;;;;;;;25.20;48.80;;;;;;4887118;29;19923;-89
2023/07/03 08:27:19;;;;;;;;;;;25.20;48.80;;;;;;4896426;29;19922;-89
2023/07/03 08:29:46;;;;;;;;;;;25.20;48.90;;;;;;4887574;29;20092;-89
2023/07/03 08:32:12;;;;;;;;;;;25.10;48.90;;;;;;4897798;29;20260;-91
2023/07/03 08:34:37;;;;;;;;;;;25.10;49.00;;;;;;4889303;29;20158;-90
2023/07/03 08:37:03;;;;;;;;;;;25.00;49.00;;;;;;4892331;29;19915;-89
2023/07/03 08:39:29;;;;;;;;;;;25.00;49.10;;;;;;4900473;29;20006;-90
2023/07/03 08:42:03;;;;;;;;;;;25.00;49.10;;;;;;4890858;29;19939;-89
2023/07/03 08:44:30;;;;;;;;;;;24.90;49.20;;;;;;4880486;29;19972;-89
2023/07/03 08:46:57;;;;;;;;;;;24.90;49.20;;;;;;4886839;29;20018;-90
2023/07/03 08:49:23;;;;;;;;;;;24.90;49.20;;;;;;4886020;29;19923;-89
2023/07/03 08:51:50;;;;;;;;;;;25.00;49.20;;;;;;4887662;29;20335;-89
2023/07/03 08:54:21;;;;;;;;;;;25.10;49.20;;;;;;4890266;29;19950;-89
2023/07/03 08:56:47;;;;;;;;;;;25.20;49.10;;;;;;4890573;29;19912;-89
2023/07/03 08:59:13;;;;;;;;;;;25.20;48.90;;;;;;4875921;29;20492;-89
2023/07/03 09:01:53;;;;;;;;;;;25.30;49.00;;;;;;4885798;29;19984;-90
2023/07/03 09:04:28;;;;;;;;;;;25.20;48.90;;;;;;4890134;29;20009;-90
2023/07/03 09:07:21;;;;;;;;;;;25.30;49.00;;;;;;4896342;29;19912;-91
2023/07/03 09:09:57;;;;;;;;;;;25.30;48.90;;;;;;4859564;29;19919;-88
2023/07/03 09:12:28;;;;;;;;;;;25.40;48.90;;;;;;4896740;29;19919;-90
2023/07/03 09:15:09;;;;;;;;;;;25.50;48.90;;;;;;4882590;29;20012;-90
2023/07/03 09:17:35;;;;;;;;;;;25.50;48.80;;;;;;4881763;29;20006;-90
2023/07/03 09:20:02;;;;;;;;;;;25.50;48.80;;;;;;4896595;29;19911;-90
2023/07/03 09:22:33;;;;;;;;;;;25.40;48.80;;;;;;4889884;29;20022;-89
2023/07/03 09:25:00;;;;;;;;;;;25.40;48.80;;;;;;4896430;29;19920;-89
2023/07/03 09:27:26;;;;;;;;;;;25.50;48.80;;;;;;4879913;29;20256;-90
2023/07/03 09:29:54;;;;;;;;;;;25.60;48.80;;;;;;4887641;29;20062;-90
2023/07/03 09:32:29;;;;;;;;;;;25.60;48.70;;;;;;4882874;29;19938;-91
2023/07/03 09:34:59;;;;;;;;;;;25.60;48.70;;;;;;4883530;29;19911;-90
2023/07/03 09:37:25;;;;;;;;;;;25.60;48.70;;;;;;4879957;29;19916;-89
2023/07/03 09:39:54;;;;;;;;;;;25.60;48.80;;;;;;4886773;29;20049;-90
2023/07/03 09:42:20;;;;;;;;;;;25.50;49.20;;;;;;4885205;29;20188;-89
2023/07/03 09:44:46;;;;;;;;;;;25.50;48.90;;;;;;4885240;29;19911;-89
2023/07/03 09:47:30;;;;;;;;;;;25.60;48.90;;;;;;4898697;29;19941;-90
2023/07/03 09:50:01;;;;;;;;;;;25.60;48.80;;;;;;4886989;29;19990;-91
2023/07/03 09:52:39;;;;;;;;;;;25.70;48.70;;;;;;4895183;29;19911;-90
2023/07/03 09:55:06;;;;;;;;;;;25.80;48.60;;;;;;4886131;29;20196;-91
2023/07/03 09:57:33;;;;;;;;;;;25.90;48.60;;;;;;4896700;29;20171;-90
2023/07/03 10:00:24;;;;;;;;;;;25.90;48.60;;;;;;4897105;29;20643;-90
2023/07/03 10:02:57;;;;;;;;;;;25.80;48.60;;;;;;4883487;29;20080;-89
2023/07/03 10:05:33;;;;;;;;;;;25.80;48.70;;;;;;4886794;29;20125;-90
2023/07/03 10:08:00;;;;;;;;;;;25.80;48.60;;;;;;4895167;29;20054;-89
2023/07/03 10:10:28;;;;;;;;;;;25.80;48.60;;;;;;4885893;29;19922;-90
2023/07/03 10:13:09;;;;;;;;;;;25.80;48.60;;;;;;4889229;29;19911;-90
2023/07/03 10:15:37;;;;;;;;;;;25.80;48.70;;;;;;4882025;29;19911;-89
2023/07/03 10:18:22;;;;;;;;;;;25.80;48.60;;;;;;4895399;29;20268;-88
2023/07/03 10:20:48;;;;;;;;;;;25.90;48.60;;;;;;4896755;29;19934;-89
2023/07/03 10:23:19;;;;;;;;;;;25.90;48.60;;;;;;4886013;29;19920;-90
2023/07/03 10:25:58;;;;;;;;;;;25.90;48.60;;;;;;4880681;29;19919;-91
2023/07/03 10:28:33;;;;;;;;;;;25.90;48.60;;;;;;4884841;29;19967;-91
2023/07/03 10:31:05;;;;;;;;;;;25.90;48.60;;;;;;4886750;29;20002;-89
2023/07/03 10:33:41;;;;;;;;;;;25.90;48.60;;;;;;4900313;29;19911;-89
2023/07/03 10:36:10;;;;;;;;;;;25.90;48.60;;;;;;4898027;29;19955;-89
2023/07/03 10:38:46;;;;;;;;;;;25.90;48.50;;;;;;4892065;29;20229;-89
2023/07/03 10:41:17;;;;;;;;;;;26.00;48.60;;;;;;4888828;29;19977;-89
2023/07/03 10:43:45;;;;;;;;;;;26.00;48.50;;;;;;4888760;29;20066;-90
2023/07/03 10:46:37;;;;;;;;;;;26.00;48.50;;;;;;4899809;29;20002;-89
2023/07/03 10:49:05;;;;;;;;;;;26.00;48.50;;;;;;4873910;29;19972;-89
2023/07/03 10:51:41;;;;;;;;;;;26.10;48.50;;;;;;4897251;29;19911;-89
2023/07/03 10:54:12;;;;;;;;;;;26.10;48.50;;;;;;4879017;29;19911;-89
2023/07/03 10:56:42;;;;;;;;;;;26.10;48.50;;;;;;4896731;29;19998;-89
2023/07/03 10:59:22;;;;;;;;;;;26.00;48.50;;;;;;4883194;29;19937;-90
2023/07/03 11:02:08;;;;;;;;;;;26.00;48.50;;;;;;4883782;29;19919;-90
2023/07/03 11:04:39;;;;;;;;;;;26.10;48.50;;;;;;4878858;29;19916;-90
2023/07/03 11:07:10;;;;;;;;;;;26.10;48.50;;;;;;4888046;29;19911;-90
2023/07/03 11:09:46;;;;;;;;;;;26.10;48.50;;;;;;4882296;29;19919;-90
2023/07/03 11:12:23;;;;;;;;;;;26.10;48.50;;;;;;4897066;29;19938;-91
2023/07/03 11:14:54;;;;;;;;;;;26.10;48.50;;;;;;4897436;29;19912;-92
2023/07/03 11:17:19;;;;;;;;;;;26.10;48.50;;;;;;4897057;29;19950;-90
2023/07/03 11:20:00;;;;;;;;;;;26.10;48.50;;;;;;4902880;29;19951;-90
2023/07/03 11:22:31;;;;;;;;;;;26.10;48.50;;;;;;4899614;29;20440;-90
2023/07/03 11:25:20;;;;;;;;;;;26.10;48.60;;;;;;4892748;29;19911;-90
2023/07/03 11:27:51;;;;;;;;;;;26.10;48.60;;;;;;4880810;29;20280;-88
2023/07/03 11:30:16;;;;;;;;;;;26.10;48.50;;;;;;4889825;29;20371;-92
2023/07/03 11:32:43;;;;;;;;;;;26.20;48.50;;;;;;4899606;29;19919;-89
2023/07/03 11:35:11;;;;;;;;;;;26.20;48.50;;;;;;4891956;29;19919;-91
2023/07/03 11:37:40;;;;;;;;;;;26.20;48.50;;;;;;4888463;29;19916;-90
2023/07/03 11:40:25;;;;;;;;;;;26.20;48.60;;;;;;4894765;29;19912;-91
2023/07/03 11:43:13;;;;;;;;;;;26.20;48.60;;;;;;4879684;29;20272;-91
2023/07/03 11:45:39;;;;;;;;;;;26.20;48.60;;;;;;4879923;29;20070;-91
2023/07/03 11:48:17;;;;;;;;;;;26.20;48.60;;;;;;4894932;29;20192;-90
2023/07/03 11:50:53;;;;;;;;;;;26.20;48.60;;;;;;4895283;29;20232;-90
2023/07/03 11:53:37;;;;;;;;;;;26.20;48.60;;;;;;4877840;29;19960;-89
2023/07/03 11:56:03;;;;;;;;;;;26.20;48.50;;;;;;4895348;29;20281;-90
2023/07/03 11:58:32;;;;;;;;;;;26.20;48.50;;;;;;4885660;29;19915;-90
2023/07/03 12:01:17;;;;;;;;;;;26.20;48.50;;;;;;4888006;29;20108;-90
2023/07/03 12:03:54;;;;;;;;;;;26.20;48.60;;;;;;4890250;29;19983;-91
2023/07/03 12:06:38;;;;;;;;;;;26.20;48.60;;;;;;4885603;29;20503;-90
2023/07/03 12:09:22;;;;;;;;;;;26.10;48.60;;;;;;4896194;29;20084;-90
2023/07/03 12:12:34;;;;;;;;;;;26.10;48.60;;;;;;4895745;29;19971;-90
2023/07/03 12:14:56;;;;;;;;;;;26.10;48.60;;;;;;4892413;29;19926;-91
2023/07/03 12:17:22;;;;;;;;;;;26.10;48.60;;;;;;4889260;29;20284;-90
2023/07/03 12:19:48;;;;;;;;;;;26.10;48.70;;;;;;4879007;29;19912;-92
2023/07/03 12:22:15;;;;;;;;;;;26.10;48.70;;;;;;4899132;29;19915;-90
2023/07/03 12:24:41;;;;;;;;;;;26.00;48.70;;;;;;4892638;29;19911;-91
2023/07/03 12:27:08;;;;;;;;;;;26.00;48.70;;;;;;4883084;29;19915;-91
2023/07/03 12:29:43;;;;;;;;;;;26.00;49.20;;;;;;4898471;29;19919;-92
2023/07/03 12:32:09;;;;;;;;;;;26.00;48.90;;;;;;4900102;29;19912;-89
2023/07/03 12:34:37;;;;;;;;;;;25.90;48.90;;;;;;4897950;29;19917;-88
2023/07/03 12:37:04;;;;;;;;;;;25.90;48.90;;;;;;4889294;29;19911;-90
2023/07/03 12:39:30;;;;;;;;;;;25.90;48.90;;;;;;4888029;29;20479;-90
2023/07/03 12:42:06;;;;;;;;;;;25.90;48.90;;;;;;4883475;29;19912;-91
2023/07/03 12:44:31;;;;;;;;;;;25.90;48.90;;;;;;4879194;29;19986;-90
2023/07/03 12:47:05;;;;;;;;;;;26.00;48.90;;;;;;4885415;29;19919;-90
2023/07/03 12:49:31;;;;;;;;;;;25.90;48.90;;;;;;4887116;29;20173;-90
2023/07/03 12:51:57;;;;;;;;;;;26.00;48.90;;;;;;4886031;29;19912;-90
2023/07/03 12:54:23;;;;;;;;;;;26.00;48.90;;;;;;4887907;29;20275;-92
2023/07/03 12:56:49;;;;;;;;;;;26.00;48.80;;;;;;4891749;29;20006;-90
2023/07/03 12:59:16;;;;;;;;;;;26.10;48.90;;;;;;4885773;29;19922;-91
2023/07/03 13:01:42;;;;;;;;;;;26.10;48.80;;;;;;4883187;29;19987;-89
2023/07/03 13:04:26;;;;;;;;;;;26.10;48.80;;;;;;4887085;29;20009;-90
2023/07/03 13:06:52;;;;;;;;;;;26.10;48.90;;;;;;4872688;29;20150;-89
2023/07/03 13:09:17;;;;;;;;;;;26.00;48.80;;;;;;4886887;29;20009;-90
2023/07/03 13:11:44;;;;;;;;;;;26.00;48.90;;;;;;4878041;29;20273;-89
2023/07/03 13:14:10;;;;;;;;;;;26.00;48.80;;;;;;4897343;29;19911;-90
2023/07/03 13:16:35;;;;;;;;;;;26.00;48.90;;;;;;4882808;29;19920;-90
2023/07/03 13:19:02;;;;;;;;;;;26.10;48.90;;;;;;4887679;29;19928;-89
2023/07/03 13:21:27;;;;;;;;;;;26.00;48.90;;;;;;4894052;29;19912;-90
2023/07/03 13:23:54;;;;;;;;;;;26.00;48.90;;;;;;4903251;29;19978;-89
2023/07/03 13:26:23;;;;;;;;;;;26.00;48.90;;;;;;4887212;29;19919;-89
2023/07/03 13:28:51;;;;;;;;;;;26.00;48.90;;;;;;4888323;29;19912;-90
2023/07/03 13:31:17;;;;;;;;;;;26.00;48.90;;;;;;4891629;29;20025;-90
2023/07/03 13:33:58;;;;;;;;;;;26.00;48.90;;;;;;4882070;29;20208;-89
2023/07/03 13:36:25;;;;;;;;;;;25.90;48.90;;;;;;4895041;29;19965;-91
2023/07/03 13:39:03;;;;;;;;;;;25.90;49.00;;;;;;4890419;29;19955;-90
2023/07/03 13:41:29;;;;;;;;;;;25.90;49.40;;;;;;4885579;29;19959;-88
2023/07/03 13:43:56;;;;;;;;;;;25.90;49.10;;;;;;4891325;29;19923;-87
2023/07/03 13:46:22;;;;;;;;;;;25.90;49.00;;;;;;4884709;29;20091;-89
2023/07/03 13:48:48;;;;;;;;;;;26.00;49.00;;;;;;4887488;29;20017;-89
2023/07/03 13:51:13;;;;;;;;;;;26.00;49.00;;;;;;4889264;29;19912;-89
2023/07/03 13:53:39;;;;;;;;;;;26.00;49.00;;;;;;4888265;29;20093;-89
2023/07/03 13:56:04;;;;;;;;;;;26.00;49.00;;;;;;4887777;29;20211;-88
2023/07/03 13:58:31;;;;;;;;;;;26.00;49.00;;;;;;4889315;29;19923;-89
2023/07/03 14:00:57;;;;;;;;;;;26.00;49.00;;;;;;4887601;29;20283;-89
2023/07/03 14:03:22;;;;;;;;;;;26.00;49.00;;;;;;4889991;29;19915;-89
2023/07/03 14:05:48;;;;;;;;;;;26.00;49.00;;;;;;4889897;29;20196;-90
2023/07/03 14:08:14;;;;;;;;;;;26.00;49.00;;;;;;4894490;29;19958;-89
2023/07/03 14:10:40;;;;;;;;;;;26.00;49.00;;;;;;4902952;29;20075;-89
2023/07/03 14:13:06;;;;;;;;;;;26.00;49.00;;;;;;4892807;29;19922;-90
2023/07/03 14:15:34;;;;;;;;;;;26.10;49.10;;;;;;4895461;29;19978;-89
2023/07/03 14:17:59;;;;;;;;;;;26.00;49.00;;;;;;4893725;29;20029;-89
2023/07/03 14:20:25;;;;;;;;;;;26.00;49.00;;;;;;4897112;29;20034;-89
2023/07/03 14:22:50;;;;;;;;;;;26.00;49.10;;;;;;4899080;29;20031;-89